VAM Template | Vabird

Vabird! Vabird Marcello Mazzieri




 INFORMACIÓN METAR y TAF
METAR FOR ENVA
ADDS - METARS form results

(0403 UTC 21 October 2020)
Data provider http://aviationweather.gov/metar/data/
 
METAR text: ENVA 210350Z 11004KT 9999 -DZ FEW015 BKN028 02/01 Q0999 RMK WIND 670FT 10008KT
Conditions at: ENVA (TRONDHEIM/VAERNE, NO) observed 0350 UTC 21 October 2020
Temperature: 2.0°C (36°F)
Dewpoint: 1.0°C (34°F) [RH = 93%]
Pressure (altimeter): 29.50 inches Hg (999.0 mb)
Winds: from the ESE (110 degrees) at 5 MPH (4 knots; 2.1 m/s)
Visibility: 6 or more miles (10+ km)
Ceiling: 2800 feet AGL
Clouds: few clouds at 1500 feet AGL
broken clouds at 2800 feet AGL
Weather: -DZ  (light drizzle)

METAR text: ENVA 210320Z 11004KT 9999 -DZ FEW015 BKN027 02/01 Q0999 RMK WIND 670FT 10008KT
Conditions at: ENVA (TRONDHEIM/VAERNE, NO) observed 0320 UTC 21 October 2020
Temperature: 2.0°C (36°F)
Dewpoint: 1.0°C (34°F) [RH = 93%]
Pressure (altimeter): 29.50 inches Hg (999.0 mb)
Winds: from the ESE (110 degrees) at 5 MPH (4 knots; 2.1 m/s)
Visibility: 6 or more miles (10+ km)
Ceiling: 2700 feet AGL
Clouds: few clouds at 1500 feet AGL
broken clouds at 2700 feet AGL
Weather: -DZ  (light drizzle)

Forecast for: ENVA (TRONDHEIM/VAERNE, NO)
Text: TAF ENVA 2100/2124 11012KT 9999 -RADZ FEW015 BKN030
Forecast period: 0000 to 0600 UTC 21 October 2020
Forecast type: FROM: standard forecast or significant change
Winds: from the ESE (110 degrees) at 14 MPH (12 knots; 6.2 m/s)
Visibility: 6 or more miles (10+ km)
Ceiling: 3000 feet AGL
Clouds: few clouds at 1500 feet AGL
broken clouds at 3000 feet AGL
Weather: -RA -DZ  (light rain, light drizzle)
Text: BECMG 2106/2108 VRB03KT
Forecast period: 0600 UTC 21 October 2020 to 0000 UTC 22 October 2020
Forecast type: BECOMING: Conditions expected to become as follows by 0800 UTC 21 October 2020
Winds: variable direction winds at 3 MPH (3 knots; 1.5 m/s)
Visibility: 6 or more miles (10+ km)
Ceiling: 3000 feet AGL
Clouds: few clouds at 1500 feet AGL
broken clouds at 3000 feet AGL
Weather: -RA -DZ  (light rain, light drizzle)

 MAPA DE AEROPUERTO

 INFORMACIÓN DE PISTA